Time;durP1;ratioP1;P1;durP2;ratioP2;P2;SDS_P1;SDS_P2;PMS_P1;PMS_P2;Temp;Humidity;BMP_temperature;BMP_pressure;BME280_temperature;BME280_humidity;BME280_pressure;Samples;Min_cycle;Max_cycle;Signal;HPM_P1;HPM_P2
2021/05/10 00:01:01;;;;;;;12.28;7.92;;;;;;;4.79;71.46;101613.10;1649590;87;21421;-57
2021/05/10 00:04:09;;;;;;;10.95;7.40;;;;;;;4.76;71.34;101622.81;1649510;87;21364;-57
2021/05/10 00:07:14;;;;;;;15.80;7.45;;;;;;;4.69;71.27;101621.50;1649498;87;21711;-57
2021/05/10 00:10:20;;;;;;;13.28;7.25;;;;;;;4.65;71.52;101616.77;1649535;87;21859;-58
2021/05/10 00:13:28;;;;;;;8.73;6.33;;;;;;;4.67;71.69;101621.61;1649442;87;21275;-57
2021/05/10 00:16:33;;;;;;;9.50;6.20;;;;;;;4.65;71.64;101625.42;1649674;87;21354;-57
2021/05/10 00:19:40;;;;;;;9.48;6.22;;;;;;;4.61;71.75;101628.31;1649473;85;21875;-57
2021/05/10 00:22:46;;;;;;;12.43;5.75;;;;;;;4.59;71.94;101629.41;1649501;87;21255;-56
2021/05/10 00:25:54;;;;;;;9.25;6.50;;;;;;;4.63;72.03;101634.14;1649575;87;21386;-57
2021/05/10 00:29:04;;;;;;;10.03;6.85;;;;;;;4.63;71.92;101636.34;1649629;87;21267;-57
2021/05/10 00:32:11;;;;;;;10.68;7.97;;;;;;;4.59;71.73;101634.84;1649466;87;21464;-58
2021/05/10 00:35:19;;;;;;;11.93;8.15;;;;;;;4.57;71.79;101636.30;1649599;87;21405;-58
2021/05/10 00:38:26;;;;;;;10.95;6.72;;;;;;;4.55;71.75;101633.33;1649549;87;21405;-57
2021/05/10 00:41:32;;;;;;;8.40;5.58;;;;;;;4.52;71.58;101633.52;1649318;87;21220;-58
2021/05/10 00:44:39;;;;;;;14.58;6.95;;;;;;;4.47;71.51;101643.33;1649544;87;21377;-56
2021/05/10 00:47:44;;;;;;;13.48;7.25;;;;;;;4.48;71.62;101632.89;1653461;83;21226;-57
2021/05/10 00:50:49;;;;;;;10.15;6.87;;;;;;;4.51;71.48;101636.73;1647596;87;21357;-56
2021/05/10 00:53:56;;;;;;;9.23;6.53;;;;;;;4.53;71.63;101632.56;1647689;87;21246;-58
2021/05/10 00:57:03;;;;;;;9.90;6.47;;;;;;;4.52;71.64;101637.58;1647421;87;21619;-57
2021/05/10 01:00:12;;;;;;;10.13;6.65;;;;;;;4.50;71.63;101636.34;1647826;87;21299;-58
2021/05/10 01:03:18;;;;;;;10.93;6.37;;;;;;;4.48;71.51;101638.31;1647761;87;21251;-57
2021/05/10 01:06:25;;;;;;;10.48;6.58;;;;;;;4.43;71.48;101631.45;1647451;87;21208;-57
2021/05/10 01:09:30;;;;;;;12.70;6.70;;;;;;;4.39;71.57;101634.86;1647645;87;21748;-58
2021/05/10 01:12:36;;;;;;;13.03;6.80;;;;;;;4.38;71.57;101642.63;1647517;87;21227;-58
2021/05/10 01:15:41;;;;;;;11.70;6.90;;;;;;;4.38;71.42;101634.48;1647522;87;21775;-57
2021/05/10 01:18:47;;;;;;;11.95;6.70;;;;;;;4.38;71.43;101639.03;1647522;87;21270;-57
2021/05/10 01:21:54;;;;;;;9.88;6.47;;;;;;;4.37;71.44;101635.95;1640689;85;21736;-56
2021/05/10 01:25:00;;;;;;;14.90;6.90;;;;;;;4.35;71.49;101631.99;1633388;86;21243;-58
2021/05/10 01:28:07;;;;;;;11.70;6.90;;;;;;;4.32;71.72;101628.14;1631284;86;21307;-58
2021/05/10 01:31:15;;;;;;;13.88;7.33;;;;;;;4.27;71.72;101626.23;1632725;86;21757;-58
2021/05/10 01:34:20;;;;;;;15.65;7.47;;;;;;;4.24;71.89;101644.06;1631675;86;21212;-58
2021/05/10 01:37:25;;;;;;;13.93;7.28;;;;;;;4.24;72.20;101644.06;1632803;86;21259;-58
2021/05/10 01:40:30;;;;;;;19.37;7.45;;;;;;;4.23;72.16;101642.30;1634707;86;21286;-59
2021/05/10 01:43:36;;;;;;;13.58;7.15;;;;;;;4.22;72.29;101648.70;1633459;86;21255;-56
2021/05/10 01:46:36;;;;;;;13.83;7.17;;;;;;;4.21;72.37;101652.88;1631848;86;21251;-56
2021/05/10 01:49:41;;;;;;;12.85;7.70;;;;;;;4.18;72.36;101655.80;1629307;85;21261;-57
2021/05/10 01:52:48;;;;;;;15.25;8.20;;;;;;;4.13;72.37;101656.59;1587840;89;21272;-57
2021/05/10 01:55:52;;;;;;;10.28;6.53;;;;;;;4.09;72.53;101658.64;1588108;90;21252;-58
2021/05/10 01:59:00;;;;;;;14.58;7.25;;;;;;;4.07;72.58;101651.13;1588067;89;21303;-56
2021/05/10 02:02:06;;;;;;;10.88;6.87;;;;;;;4.07;72.74;101647.53;1588158;89;21750;-57
2021/05/10 02:05:26;;;;;;;14.45;7.87;;;;;;;4.09;72.79;101659.14;1587992;90;21718;-57
2021/05/10 02:08:31;;;;;;;15.40;7.33;;;;;;;4.06;72.60;101654.78;1594489;88;21323;-57
2021/05/10 02:11:37;;;;;;;14.47;7.00;;;;;;;4.03;72.56;101654.11;1588853;89;21312;-57
2021/05/10 02:14:42;;;;;;;9.68;7.17;;;;;;;3.97;72.60;101654.06;1588513;90;21508;-57
2021/05/10 02:17:47;;;;;;;14.68;7.20;;;;;;;3.94;72.76;101656.98;1588327;89;21272;-57
2021/05/10 02:20:54;;;;;;;13.13;7.55;;;;;;;3.92;72.93;101656.20;1588485;90;21373;-57
2021/05/10 02:23:59;;;;;;;10.80;7.15;;;;;;;3.92;73.09;101664.33;1588444;89;21610;-57
2021/05/10 02:27:04;;;;;;;11.53;6.97;;;;;;;3.93;73.09;101663.85;1588486;89;21388;-57
2021/05/10 02:30:09;;;;;;;15.80;7.83;;;;;;;3.89;72.94;101669.95;1588564;90;21391;-58
2021/05/10 02:33:18;;;;;;;12.30;7.05;;;;;;;3.87;73.08;101669.69;1588436;89;21381;-56
2021/05/10 02:36:23;;;;;;;12.58;6.08;;;;;;;3.87;73.18;101675.95;1588392;90;21904;-57
2021/05/10 02:39:29;;;;;;;13.90;7.22;;;;;;;3.90;73.29;101678.45;1588453;90;21410;-56
2021/05/10 02:42:35;;;;;;;19.90;9.88;;;;;;;3.90;73.08;101689.28;1588468;89;21403;-56
2021/05/10 02:45:41;;;;;;;17.02;9.73;;;;;;;3.92;73.10;101684.64;1588467;90;21390;-57
2021/05/10 02:48:46;;;;;;;22.25;11.10;;;;;;;3.96;73.22;101685.31;1588350;89;21369;-56
2021/05/10 02:51:53;;;;;;;17.42;9.23;;;;;;;4.01;73.40;101689.95;1624980;87;21224;-56
2021/05/10 02:54:58;;;;;;;20.43;9.20;;;;;;;4.08;73.53;101682.66;1624310;88;21252;-56
2021/05/10 02:58:04;;;;;;;15.63;9.28;;;;;;;4.19;73.71;101690.92;1624459;87;21255;-57
2021/05/10 03:01:09;;;;;;;27.73;11.85;;;;;;;4.30;73.69;101691.06;1627393;87;21303;-56
2021/05/10 03:04:15;;;;;;;26.55;11.88;;;;;;;4.41;73.65;101697.10;1624313;88;21240;-57
2021/05/10 03:07:21;;;;;;;28.52;11.88;;;;;;;4.53;73.42;101696.28;1624315;87;21255;-56
2021/05/10 03:10:29;;;;;;;26.68;12.30;;;;;;;4.63;72.99;101700.95;1624511;87;21221;-56
2021/05/10 03:13:35;;;;;;;24.27;9.85;;;;;;;4.75;72.65;101694.30;1624186;87;21228;-56
2021/05/10 03:16:40;;;;;;;15.70;7.28;;;;;;;4.84;72.39;101694.52;1624584;87;21223;-56
2021/05/10 03:19:45;;;;;;;11.85;6.78;;;;;;;4.97;71.88;101710.33;1624472;88;21317;-56
2021/05/10 03:22:52;;;;;;;11.12;6.30;;;;;;;5.08;71.00;101709.56;1624366;87;21279;-56
2021/05/10 03:25:58;;;;;;;13.53;6.15;;;;;;;5.23;70.12;101708.48;1624493;87;21764;-56
2021/05/10 03:29:05;;;;;;;9.43;5.67;;;;;;;5.39;69.29;101706.41;1624178;87;21224;-56
2021/05/10 03:32:13;;;;;;;7.15;5.33;;;;;;;5.54;68.47;101710.23;1624572;87;21216;-57
2021/05/10 03:35:18;;;;;;;11.65;5.15;;;;;;;5.70;67.68;101718.13;1624511;87;21251;-58
2021/05/10 03:38:25;;;;;;;12.73;5.35;;;;;;;5.85;67.02;101719.77;1624482;87;21236;-58
2021/05/10 03:41:30;;;;;;;8.48;5.40;;;;;;;6.00;66.36;101720.86;1624434;88;21237;-57
2021/05/10 03:44:35;;;;;;;9.05;5.50;;;;;;;6.15;65.88;101720.69;1624681;87;21803;-58
2021/05/10 03:47:41;;;;;;;7.70;4.87;;;;;;;6.27;65.37;101722.47;1625772;87;21300;-56
2021/05/10 03:50:46;;;;;;;10.58;5.75;;;;;;;6.40;64.85;101729.60;1623966;86;21261;-56
2021/05/10 03:53:51;;;;;;;9.90;6.28;;;;;;;6.51;64.55;101726.94;1624424;87;21272;-56
2021/05/10 03:56:59;;;;;;;9.78;5.55;;;;;;;6.62;64.10;101725.61;1624021;87;21256;-56
2021/05/10 04:00:05;;;;;;;9.80;6.03;;;;;;;6.74;63.78;101728.73;1624121;88;21236;-56
2021/05/10 04:03:12;;;;;;;11.78;5.95;;;;;;;6.88;63.54;101723.60;1624718;87;21800;-56
2021/05/10 04:06:37;;;;;;;11.97;6.20;;;;;;;7.00;63.29;101721.27;1624157;88;21232;-57
2021/05/10 04:10:02;;;;;;;8.88;4.92;;;;;;;7.13;63.09;101724.28;1624278;88;21224;-58
2021/05/10 04:16:14;;;;;;;10.38;4.58;;;;;;;7.47;62.14;101727.39;1624202;88;21352;-57
2021/05/10 04:19:19;;;;;;;8.90;4.60;;;;;;;7.66;61.64;101732.73;1624761;86;21372;-57
2021/05/10 04:22:24;;;;;;;7.78;4.70;;;;;;;7.83;61.03;101728.13;1624112;87;21236;-57
2021/05/10 04:25:30;;;;;;;6.17;3.90;;;;;;;7.98;60.66;101730.95;1624878;87;21294;-57
2021/05/10 04:28:36;;;;;;;5.05;3.72;;;;;;;8.15;60.08;101734.02;1624372;86;21260;-57
2021/05/10 04:31:41;;;;;;;4.72;3.50;;;;;;;8.30;59.27;101729.19;1625396;86;21358;-59
2021/05/10 04:34:48;;;;;;;5.58;3.42;;;;;;;8.47;58.47;101737.69;1624289;87;21303;-56
2021/05/10 04:37:56;;;;;;;5.85;3.30;;;;;;;8.61;58.04;101738.75;1624076;87;21835;-58
2021/05/10 04:41:01;;;;;;;7.15;4.12;;;;;;;8.75;57.56;101737.59;1624162;88;21761;-55
2021/05/10 04:44:07;;;;;;;4.53;3.25;;;;;;;8.89;56.88;101731.80;1624557;87;21797;-56
2021/05/10 04:47:13;;;;;;;5.28;3.17;;;;;;;9.03;56.19;101734.20;1624133;87;21283;-57
2021/05/10 04:50:21;;;;;;;5.58;3.15;;;;;;;9.16;55.68;101737.61;1624633;87;21308;-59
2021/05/10 04:53:27;;;;;;;9.30;3.47;;;;;;;9.28;55.36;101729.69;1623164;86;21264;-58
2021/05/10 04:56:37;;;;;;;5.72;2.95;;;;;;;9.41;55.43;101730.34;1624185;88;21360;-59
2021/05/10 04:59:42;;;;;;;5.30;2.75;;;;;;;9.56;55.07;101731.70;1624157;88;21252;-57
2021/05/10 05:02:49;;;;;;;4.05;2.83;;;;;;;9.74;54.91;101741.50;1624437;87;21832;-56
2021/05/10 05:05:57;;;;;;;5.75;2.70;;;;;;;9.88;54.47;101737.02;1624170;87;21599;-58
2021/05/10 05:09:03;;;;;;;3.92;2.60;;;;;;;10.02;54.11;101727.93;1624188;87;21255;-58
2021/05/10 05:12:08;;;;;;;8.28;2.60;;;;;;;10.17;53.22;101729.81;1624435;87;21599;-57
2021/05/10 05:15:17;;;;;;;5.25;2.55;;;;;;;10.34;51.49;101720.91;1625190;88;21248;-59
2021/05/10 05:18:22;;;;;;;6.08;2.50;;;;;;;10.53;50.34;101727.28;1624579;87;21856;-57
2021/05/10 05:21:28;;;;;;;5.72;2.62;;;;;;;10.68;49.56;101723.62;1624044;86;21295;-57
2021/05/10 05:24:33;;;;;;;3.60;2.40;;;;;;;10.80;49.86;101721.61;1622418;88;21267;-58
2021/05/10 05:27:39;;;;;;;3.15;2.30;;;;;;;10.92;49.26;101720.44;1622401;87;21299;-57
2021/05/10 05:30:45;;;;;;;4.05;2.20;;;;;;;11.01;48.57;101730.51;1622256;88;21256;-57
2021/05/10 05:33:50;;;;;;;2.75;2.22;;;;;;;11.16;46.67;101735.39;1621997;87;21315;-56
2021/05/10 05:37:00;;;;;;;3.12;2.20;;;;;;;11.26;45.87;101726.66;1621374;87;21263;-57
2021/05/10 05:40:06;;;;;;;3.12;2.35;;;;;;;11.35;46.30;101732.61;1622005;88;21260;-57
2021/05/10 05:43:12;;;;;;;4.25;2.00;;;;;;;11.47;45.34;101725.08;1622567;87;21302;-58
2021/05/10 05:46:26;;;;;;;2.95;2.05;;;;;;;11.57;44.44;101724.55;1622899;88;21316;-57
2021/05/10 05:49:29;;;;;;;3.50;2.30;;;;;;;11.68;44.40;101722.53;1622657;88;21256;-55
2021/05/10 05:52:35;;;;;;;4.60;2.50;;;;;;;11.79;44.35;101726.95;1623276;86;21279;-58
2021/05/10 05:55:44;;;;;;;4.17;2.10;;;;;;;11.88;43.58;101729.66;1621513;88;21216;-56
2021/05/10 05:58:50;;;;;;;3.20;2.17;;;;;;;11.96;42.84;101708.31;1621639;87;21248;-56
2021/05/10 06:02:00;;;;;;;3.40;2.00;;;;;;;12.05;43.59;101704.64;1601541;87;21454;-57
2021/05/10 06:05:07;;;;;;;4.17;2.10;;;;;;;12.16;42.50;101701.71;1621681;88;21339;-58
2021/05/10 06:08:14;;;;;;;7.10;2.20;;;;;;;12.27;40.81;101711.11;1621924;87;21414;-57
2021/05/10 06:11:19;;;;;;;3.47;2.00;;;;;;;12.37;40.91;101718.75;1620382;88;21256;-57
2021/05/10 06:14:26;;;;;;;2.72;2.00;;;;;;;12.44;38.32;101708.88;1595715;89;21223;-58
2021/05/10 06:17:31;;;;;;;3.45;2.15;;;;;;;12.49;37.39;101713.41;1620033;87;21231;-58
2021/05/10 06:20:37;;;;;;;4.78;2.10;;;;;;;12.52;38.41;101703.48;1620708;88;21814;-58
2021/05/10 06:23:43;;;;;;;3.35;2.15;;;;;;;12.61;38.05;101700.28;1620470;87;21265;-57
2021/05/10 06:26:51;;;;;;;3.80;2.10;;;;;;;12.71;37.57;101703.32;1620985;87;21391;-57
2021/05/10 06:29:57;;;;;;;3.47;1.85;;;;;;;12.79;36.71;101701.16;1620776;88;21213;-58
2021/05/10 06:33:03;;;;;;;4.70;2.00;;;;;;;12.80;37.20;101700.99;1620807;87;21209;-56
2021/05/10 06:36:32;;;;;;;2.58;1.80;;;;;;;12.84;36.81;101709.30;1620594;88;21347;-57
2021/05/10 06:39:36;;;;;;;3.08;2.15;;;;;;;12.91;36.31;101694.37;1619930;88;21443;-58
2021/05/10 06:42:44;;;;;;;5.00;2.02;;;;;;;12.97;36.22;101692.39;1627510;88;21306;-57
2021/05/10 06:45:53;;;;;;;2.10;1.80;;;;;;;13.03;36.17;101693.99;1627785;86;21278;-57
2021/05/10 06:49:00;;;;;;;7.42;2.40;;;;;;;13.08;35.60;101690.80;1621218;86;21310;-59
2021/05/10 06:52:06;;;;;;;5.78;2.08;;;;;;;13.09;36.18;101675.51;1626951;86;21752;-57
2021/05/10 06:55:14;;;;;;;5.87;2.67;;;;;;;13.17;37.18;101678.82;1627535;88;21214;-55
2021/05/10 06:58:19;;;;;;;6.05;2.37;;;;;;;13.25;35.75;101696.25;1627785;88;21278;-57
2021/05/10 07:01:25;;;;;;;5.83;2.33;;;;;;;13.30;34.52;101693.86;1627607;88;21271;-57
2021/05/10 07:04:29;;;;;;;3.80;2.33;;;;;;;13.33;34.67;101681.69;1613972;89;21260;-58
2021/05/10 07:07:35;;;;;;;4.15;1.98;;;;;;;13.39;35.17;101692.91;1626182;87;21907;-55
2021/05/10 07:10:41;;;;;;;7.08;2.42;;;;;;;13.44;34.82;101673.16;1619341;88;21594;-57
2021/05/10 07:13:46;;;;;;;4.35;1.85;;;;;;;13.47;34.84;101681.95;1628049;88;21238;-58
2021/05/10 07:16:53;;;;;;;4.47;1.87;;;;;;;13.54;34.69;101672.00;1627509;88;21274;-57
2021/05/10 07:20:00;;;;;;;2.83;2.08;;;;;;;13.64;34.55;101662.79;1627924;88;21262;-59
2021/05/10 07:23:06;;;;;;;3.47;2.08;;;;;;;13.69;33.33;101665.38;1628196;87;21241;-57
2021/05/10 07:26:11;;;;;;;4.78;2.10;;;;;;;13.73;33.54;101653.53;1627820;88;21254;-59
2021/05/10 07:29:17;;;;;;;2.52;1.90;;;;;;;13.79;33.77;101665.25;1628678;86;21755;-56
2021/05/10 07:32:23;;;;;;;6.67;2.12;;;;;;;13.84;33.70;101640.85;1655412;86;21385;-57
2021/05/10 07:35:29;;;;;;;3.60;2.30;;;;;;;13.90;34.25;101644.30;1669711;86;21247;-59
2021/05/10 07:38:36;;;;;;;2.67;2.00;;;;;;;13.99;33.70;101644.67;1667819;86;21623;-57
2021/05/10 07:41:46;;;;;;;4.70;1.98;;;;;;;14.04;33.54;101651.42;1654121;87;21280;-57
2021/05/10 07:44:51;;;;;;;2.77;1.90;;;;;;;14.05;32.45;101635.77;1665784;86;21259;-59
2021/05/10 07:47:57;;;;;;;4.35;1.92;;;;;;;14.03;32.99;101637.82;1654117;87;21256;-57
2021/05/10 07:51:02;;;;;;;5.37;2.10;;;;;;;14.08;32.10;101634.05;1665370;86;21248;-57
2021/05/10 07:54:08;;;;;;;9.98;2.30;;;;;;;14.12;31.68;101622.53;1665669;86;21804;-56
2021/05/10 07:57:14;;;;;;;4.70;2.20;;;;;;;14.13;31.87;101631.66;1665701;86;21726;-57
2021/05/10 08:00:35;;;;;;;2.98;2.02;;;;;;;14.15;31.04;101630.95;1653363;87;21216;-57
2021/05/10 08:03:31;;;;;;;4.75;2.00;;;;;;;14.16;31.66;101619.77;1665075;86;21789;-57
2021/05/10 08:06:38;;;;;;;2.80;1.92;;;;;;;14.23;31.36;101614.45;1665447;86;21252;-58
2021/05/10 08:09:45;;;;;;;3.87;1.55;;;;;;;14.26;31.12;101612.77;1645247;87;21290;-57
2021/05/10 08:12:52;;;;;;;2.62;2.00;;;;;;;14.28;31.08;101607.45;1628165;88;21232;-57
2021/05/10 08:15:58;;;;;;;3.15;1.70;;;;;;;14.31;30.97;101611.73;1593467;89;21255;-57
2021/05/10 08:19:06;;;;;;;5.58;2.10;;;;;;;14.33;31.67;101595.91;1625341;88;21256;-54
2021/05/10 08:22:13;;;;;;;2.92;2.12;;;;;;;14.43;31.34;101589.73;1627787;87;21500;-57
2021/05/10 08:25:23;;;;;;;3.87;2.33;;;;;;;14.51;31.67;101573.17;1627251;88;21386;-56
2021/05/10 08:28:31;;;;;;;5.40;2.05;;;;;;;14.62;31.75;101571.45;1625321;87;21252;-57
2021/05/10 08:31:37;;;;;;;3.10;2.00;;;;;;;14.69;31.47;101561.47;1627490;88;21429;-58
2021/05/10 08:34:43;;;;;;;4.72;2.58;;;;;;;14.74;31.99;101562.68;1638674;87;21371;-58
2021/05/10 08:37:49;;;;;;;2.55;1.87;;;;;;;14.87;32.73;101562.14;1638757;87;21645;-60
2021/05/10 08:40:56;;;;;;;5.97;2.60;;;;;;;15.00;31.86;101559.17;1638960;84;21260;-59
2021/05/10 08:44:04;;;;;;;3.95;2.20;;;;;;;15.04;31.27;101545.89;1624982;88;21392;-59
2021/05/10 08:47:09;;;;;;;4.95;2.20;;;;;;;15.03;31.15;101555.22;1632767;86;21262;-58
2021/05/10 08:50:17;;;;;;;4.55;2.25;;;;;;;15.10;30.85;101556.72;1623734;87;21252;-57
2021/05/10 08:53:22;;;;;;;3.75;2.05;;;;;;;15.09;30.16;101543.98;1623647;88;21280;-55
2021/05/10 08:56:28;;;;;;;4.90;2.17;;;;;;;15.08;30.53;101538.97;1623695;88;21247;-56
2021/05/10 08:59:35;;;;;;;3.45;2.17;;;;;;;15.11;30.08;101561.22;1624339;86;21266;-59
2021/05/10 09:02:42;;;;;;;3.58;2.50;;;;;;;15.08;30.53;101536.76;1618785;88;21259;-59
2021/05/10 09:06:01;;;;;;;5.72;2.40;;;;;;;15.14;31.03;101526.39;1624934;88;21259;-54
2021/05/10 09:09:14;;;;;;;5.83;2.67;;;;;;;15.26;30.76;101541.50;1638467;87;21265;-57
2021/05/10 09:12:22;;;;;;;2.85;2.00;;;;;;;15.29;30.38;101540.64;1638530;87;21329;-57
2021/05/10 09:15:34;;;;;;;4.10;2.08;;;;;;;15.34;30.28;101529.93;1624953;87;21212;-58
2021/05/10 09:18:40;;;;;;;3.98;2.10;;;;;;;15.42;30.06;101520.27;1626388;86;21257;-58
2021/05/10 09:21:47;;;;;;;3.50;2.50;;;;;;;15.50;30.01;101515.22;1624714;88;21236;-59
2021/05/10 09:25:00;;;;;;;5.20;1.98;;;;;;;15.54;30.23;101514.68;1601979;87;21276;-55
2021/05/10 09:28:25;;;;;;;2.77;2.20;;;;;;;15.62;30.26;101519.33;1625421;87;21224;-54
2021/05/10 09:31:31;;;;;;;4.67;2.12;;;;;;;15.69;30.43;101500.47;1625319;88;21216;-58
2021/05/10 09:34:40;;;;;;;5.28;2.10;;;;;;;15.79;30.32;101497.47;1625393;88;21224;-58
2021/05/10 09:37:48;;;;;;;3.05;2.20;;;;;;;15.85;29.18;101508.65;1626340;88;21588;-58
2021/05/10 09:40:59;;;;;;;4.30;2.20;;;;;;;15.84;28.97;101501.93;1627613;84;21829;-57
2021/05/10 09:44:08;;;;;;;4.92;2.10;;;;;;;15.83;28.76;101491.39;1627983;88;21327;-57
2021/05/10 09:47:14;;;;;;;5.00;2.22;;;;;;;15.85;28.88;101503.12;1627281;87;21741;-57
2021/05/10 09:50:21;;;;;;;5.55;2.22;;;;;;;15.92;28.40;101486.14;1627799;88;21357;-58
2021/05/10 09:53:49;;;;;;;5.00;2.25;;;;;;;16.01;29.80;101484.20;1596129;88;21269;-56
2021/05/10 09:56:54;;;;;;;5.00;2.15;;;;;;;16.13;28.67;101465.61;1627118;87;21822;-57
2021/05/10 10:00:30;;;;;;;5.92;2.33;;;;;;;16.15;29.16;101470.45;1618084;88;21907;-58
2021/05/10 10:03:42;;;;;;;3.80;2.15;;;;;;;16.26;29.10;101491.23;1627007;87;21418;-57
2021/05/10 10:06:51;;;;;;;4.20;1.90;;;;;;;16.35;29.30;101459.20;1625433;87;21243;-56
2021/05/10 10:09:56;;;;;;;2.30;1.87;;;;;;;16.47;29.00;101473.98;1627463;87;21927;-59
2021/05/10 10:13:01;;;;;;;5.05;2.00;;;;;;;16.55;28.82;101474.77;1625066;87;21220;-59
2021/05/10 10:16:08;;;;;;;3.17;2.17;;;;;;;16.59;28.84;101443.44;1595672;90;21222;-56
2021/05/10 10:19:14;;;;;;;3.85;2.17;;;;;;;16.68;28.74;101455.60;1627280;86;21754;-57
2021/05/10 10:22:21;;;;;;;5.75;1.92;;;;;;;16.84;28.44;101455.97;1627253;86;21819;-54
2021/05/10 10:25:29;;;;;;;7.50;2.60;;;;;;;16.92;28.06;101456.72;1595944;90;21251;-56
2021/05/10 10:28:37;;;;;;;3.33;1.92;;;;;;;17.08;28.20;101445.45;1596784;88;21310;-56
2021/05/10 10:31:54;;;;;;;7.83;2.42;;;;;;;17.17;27.32;101455.91;1628307;88;21394;-60
2021/05/10 10:35:00;;;;;;;1.82;1.42;;;;;;;17.02;26.93;101450.89;1628437;88;21385;-57
2021/05/10 10:38:09;;;;;;;4.40;1.98;;;;;;;16.96;27.65;101422.11;1644025;86;21852;-57
2021/05/10 10:41:32;;;;;;;3.45;2.10;;;;;;;17.01;27.53;101445.91;1653477;86;21252;-59
2021/05/10 10:44:49;;;;;;;3.85;2.40;;;;;;;17.08;27.55;101426.09;1632023;88;21248;-59
2021/05/10 10:48:01;;;;;;;2.95;2.10;;;;;;;17.23;27.23;101435.76;1631849;88;21728;-58
2021/05/10 10:51:08;;;;;;;3.58;2.12;;;;;;;17.38;26.94;101414.42;1654491;86;21461;-57
2021/05/10 10:54:32;;;;;;;2.75;2.10;;;;;;;17.41;27.19;101404.38;1654710;86;21286;-58
2021/05/10 10:57:39;;;;;;;2.30;1.70;;;;;;;17.58;27.26;101405.33;1669040;86;21264;-58
2021/05/10 11:01:18;;;;;;;4.58;1.90;;;;;;;17.68;26.67;101393.92;1634550;86;21271;-57
2021/05/10 11:04:36;;;;;;;4.25;2.02;;;;;;;17.72;26.85;101402.19;1627850;88;21378;-57
2021/05/10 11:08:09;;;;;;;4.17;2.10;;;;;;;17.88;27.89;101388.95;1627946;88;21256;-57
2021/05/10 11:11:15;;;;;;;3.10;2.20;;;;;;;18.13;26.77;101372.73;1628075;87;21370;-55
2021/05/10 11:14:23;;;;;;;3.20;2.20;;;;;;;18.28;26.62;101370.73;1604713;89;21253;-57
2021/05/10 11:18:00;;;;;;;3.72;1.60;;;;;;;18.30;26.04;101369.98;1609659;88;21778;-57
2021/05/10 11:21:08;;;;;;;4.12;2.00;;;;;;;18.30;26.74;101364.44;1628894;88;22022;-57
2021/05/10 11:24:16;;;;;;;3.45;1.70;;;;;;;18.24;26.32;101364.38;1627619;87;21287;-60
2021/05/10 11:27:34;;;;;;;3.12;2.05;;;;;;;18.26;25.27;101361.76;1633762;88;21302;-57
2021/05/10 11:31:13;;;;;;;1.75;1.50;;;;;;;18.24;25.25;101369.93;1626081;88;21240;-59
2021/05/10 11:34:19;;;;;;;2.80;1.82;;;;;;;18.25;25.35;101338.39;1624286;86;21331;-59
2021/05/10 11:37:36;;;;;;;3.72;1.87;;;;;;;18.43;26.19;101342.91;1633709;88;21299;-58
2021/05/10 11:40:43;;;;;;;4.55;2.00;;;;;;;18.53;25.17;101340.12;1642136;87;21248;-56
2021/05/10 11:43:50;;;;;;;4.00;2.27;;;;;;;18.58;25.23;101346.43;1627891;85;21241;-57
2021/05/10 11:46:56;;;;;;;5.65;1.80;;;;;;;18.62;25.31;101326.40;1619381;87;21195;-57
2021/05/10 11:50:08;;;;;;;2.72;1.80;;;;;;;18.75;24.46;101349.19;1621521;88;21442;-58
2021/05/10 11:53:16;;;;;;;2.20;1.70;;;;;;;18.81;24.54;101330.33;1621863;88;21259;-55
2021/05/10 11:56:40;;;;;;;2.25;1.72;;;;;;;18.86;24.49;101341.66;1621935;88;21888;-58
2021/05/10 11:59:51;;;;;;;4.08;1.75;;;;;;;18.85;24.21;101332.47;1621941;88;21939;-58
2021/05/10 12:02:58;;;;;;;8.43;1.90;;;;;;;18.85;24.27;101318.60;1621820;88;21942;-58
2021/05/10 12:06:05;;;;;;;2.75;1.70;;;;;;;18.92;24.12;101328.34;1621855;88;21231;-56
2021/05/10 12:09:11;;;;;;;2.98;1.80;;;;;;;18.92;23.87;101320.02;1620833;88;21287;-59
2021/05/10 12:12:28;;;;;;;3.22;1.80;;;;;;;18.84;24.03;101315.52;1621522;88;21374;-56
2021/05/10 12:15:35;;;;;;;6.67;1.87;;;;;;;18.92;24.40;101304.76;1621235;88;21251;-56
2021/05/10 12:18:40;;;;;;;4.45;1.60;;;;;;;19.00;24.02;101315.68;1621710;88;21453;-59
2021/05/10 12:21:48;;;;;;;3.98;2.10;;;;;;;18.98;24.07;101303.40;1621977;88;21749;-60
2021/05/10 12:25:16;;;;;;;5.08;1.77;;;;;;;19.04;24.49;101312.27;1621860;88;21279;-58
2021/05/10 12:28:24;;;;;;;8.78;2.00;;;;;;;19.04;24.21;101298.39;1625697;88;21553;-59
2021/05/10 12:31:36;;;;;;;4.33;1.80;;;;;;;19.08;24.73;101288.60;1638169;87;21787;-59
2021/05/10 12:34:42;;;;;;;3.72;1.80;;;;;;;19.21;24.49;101278.06;1626591;88;21364;-57
2021/05/10 12:37:52;;;;;;;2.08;1.47;;;;;;;19.28;23.98;101292.86;1627623;88;21377;-57
2021/05/10 12:40:58;;;;;;;3.40;1.80;;;;;;;19.22;23.72;101293.12;1627324;88;21354;-60
2021/05/10 12:44:05;;;;;;;4.05;1.72;;;;;;;19.17;23.66;101270.68;1623300;84;21424;-59
2021/05/10 12:47:12;;;;;;;2.92;1.82;;;;;;;19.21;23.47;101280.32;1636606;87;21404;-58
2021/05/10 12:50:20;;;;;;;3.05;1.87;;;;;;;19.27;23.41;101263.33;1636659;87;21384;-58
2021/05/10 12:53:57;;;;;;;2.90;1.80;;;;;;;19.27;23.30;101241.98;1636608;87;21246;-58
2021/05/10 12:56:57;;;;;;;3.87;2.42;;;;;;;19.35;22.80;101263.16;1624738;88;21744;-58
2021/05/10 13:00:04;;;;;;;10.60;2.65;;;;;;;19.44;23.42;101254.95;1625143;88;21288;-57
2021/05/10 13:03:09;;;;;;;5.22;2.12;;;;;;;19.46;23.32;101238.06;1635933;87;21288;-57
2021/05/10 13:06:20;;;;;;;7.15;2.00;;;;;;;19.43;23.56;101239.88;1624780;88;21223;-58
2021/05/10 13:09:35;;;;;;;3.00;2.10;;;;;;;19.42;23.26;101245.99;1624673;88;21280;-58
2021/05/10 13:12:44;;;;;;;4.97;1.90;;;;;;;19.39;23.40;101224.73;1625014;88;21235;-59
2021/05/10 13:15:57;;;;;;;8.40;2.92;;;;;;;19.42;23.00;101242.35;1636532;87;21336;-58
2021/05/10 13:19:11;;;;;;;2.40;1.50;;;;;;;19.36;22.88;101220.44;1599469;89;21596;-58
2021/05/10 13:32:31;;;;;;;;;;;;;;;19.76;22.85;101229.09;1627218;87;21764;-56
2021/05/10 13:38:57;;;;;;;6.03;1.67;;;;;;;20.03;22.93;101214.62;1624619;87;21259;-58
2021/05/10 13:45:09;;;;;;;3.55;1.67;;;;;;;20.54;22.04;101214.18;1599191;87;21245;-57
2021/05/10 13:48:15;;;;;;;2.15;1.50;;;;;;;20.67;21.90;101208.56;1610312;89;21875;-56
2021/05/10 13:51:20;;;;;;;4.80;2.10;;;;;;;20.64;21.71;101195.09;1610391;89;21236;-58
2021/05/10 13:54:28;;;;;;;3.37;1.87;;;;;;;20.67;22.36;101187.69;1610760;88;21225;-58
2021/05/10 13:57:35;;;;;;;4.15;1.80;;;;;;;20.83;22.10;101194.14;1636297;86;21286;-56
2021/05/10 14:00:43;;;;;;;2.08;1.45;;;;;;;20.89;22.24;101192.38;1624907;88;21240;-56
2021/05/10 14:03:49;;;;;;;2.60;1.55;;;;;;;21.05;22.15;101191.35;1636391;87;21257;-58
2021/05/10 14:06:55;;;;;;;3.35;1.40;;;;;;;20.86;21.35;101209.00;1625241;88;21212;-57
2021/05/10 14:10:00;;;;;;;3.67;1.50;;;;;;;20.41;21.81;101172.50;1625205;88;21410;-57
2021/05/10 14:13:07;;;;;;;3.47;1.55;;;;;;;20.22;22.97;101180.38;1613987;87;21263;-58
2021/05/10 14:16:13;;;;;;;2.33;1.25;;;;;;;20.19;22.68;101173.88;1625348;88;21237;-57
2021/05/10 14:19:22;;;;;;;3.40;1.42;;;;;;;20.52;22.17;101165.72;1625283;87;21602;-57
2021/05/10 14:22:28;;;;;;;3.77;1.30;;;;;;;20.62;21.64;101172.19;1631023;87;21972;-56
2021/05/10 14:25:33;;;;;;;1.77;1.47;;;;;;;20.54;21.65;101167.75;1635087;87;21361;-57
2021/05/10 14:28:39;;;;;;;2.30;1.50;;;;;;;20.65;21.65;101171.75;1637760;87;21249;-60
2021/05/10 14:31:44;;;;;;;3.40;1.65;;;;;;;20.61;22.29;101167.16;1624261;88;21240;-58
2021/05/10 14:34:53;;;;;;;1.62;1.22;;;;;;;20.67;21.40;101170.47;1625112;87;21227;-56
2021/05/10 14:37:57;;;;;;;2.15;1.50;;;;;;;20.82;21.43;101169.31;1625151;87;21772;-57
2021/05/10 14:41:06;;;;;;;1.60;1.37;;;;;;;20.96;21.89;101177.89;1625181;87;21292;-58
2021/05/10 14:44:14;;;;;;;4.62;1.40;;;;;;;21.41;21.34;101171.14;1624624;88;21322;-59
2021/05/10 14:47:19;;;;;;;1.70;1.12;;;;;;;22.04;20.74;101163.78;1641131;85;21229;-57
2021/05/10 14:50:24;;;;;;;2.83;1.15;;;;;;;22.86;19.85;101148.38;1628012;88;21880;-58
2021/05/10 14:53:29;;;;;;;1.87;1.30;;;;;;;23.53;19.09;101168.93;1626592;88;21228;-59
2021/05/10 14:56:40;;;;;;;5.45;1.40;;;;;;;23.50;18.87;101152.61;1613716;87;21343;-58